Главная страница
METAR-TAF:

METAR-TAF

Аэропорты :

Брянск, Россия

широта: 53-15N, долгота: 034-19E, высота над уровнем моря: 217 м

Текущие метеонаблюдения

Эта сводка был подготовлена 25 минут назад, в 10:00 UTC
Ветер 8 Узел от северно-северо-западный
Температура 9°C
Влажность 49%
Давление 1023 hPa
Видимость 10 км и более
небольшая облачность на высоте 2000 фута

METAR: UUBP 231000Z 34004MPS 9999 FEW020 09/M01 Q1023 R34/190060 NOSIG RMK QFE749/0999

Время: 13:25 (10:25 UTC)

Прогноз

Эта сводка был подготовлена 2 часа и 32 минут назад, в 07:53 UTC
Прогноз действительный с 23-го 09 UTC до 23-го 18 UTC
Ветер 2 Узел переменных направлений
Видимость 10 км и более
Отдельные облака на высоте 2000 фута

TAF: UUBP 230753Z 2309/2318 VRB01MPS 9999 SCT020

Метеонаблюдения и прогнозы для более 4000 аэропортов (сводки METAR и TAF).

Имеющиеся станции представлены на карте желтыми и красными точками.

Чтобы увидеть название станции, наведите на нее мышь.

Затем щелкните, чтобы увидеть метеонаблюдения и метеопрогнозы.

Управление картой: чтобы увеличить масштаб, щелкните зеленые кнопки с черным крестиком; чтобы уменьшить масштаб, щелкните зеленую кнопку с тире; для просмотра соседних карт щелкайте зеленые стрелки.


METAR-TAF: